sensor_id;sensor_type;location;lat;lon;timestamp;temperature;humidity
23207;DHT22;11773;52.570;13.052;2024-03-06T00:00:22;3.70;99.90
23207;DHT22;11773;52.570;13.052;2024-03-06T00:02:52;3.60;99.90
23207;DHT22;11773;52.570;13.052;2024-03-06T00:05:22;3.60;99.90
23207;DHT22;11773;52.570;13.052;2024-03-06T00:07:52;3.50;99.90
23207;DHT22;11773;52.570;13.052;2024-03-06T00:10:22;3.70;99.90
23207;DHT22;11773;52.570;13.052;2024-03-06T00:12:51;3.70;99.90
23207;DHT22;11773;52.570;13.052;2024-03-06T00:15:21;3.70;99.90
23207;DHT22;11773;52.570;13.052;2024-03-06T00:17:50;3.70;99.90
23207;DHT22;11773;52.570;13.052;2024-03-06T00:20:20;3.70;99.90
23207;DHT22;11773;52.570;13.052;2024-03-06T00:22:49;3.70;99.90
23207;DHT22;11773;52.570;13.052;2024-03-06T00:25:19;3.70;99.90
23207;DHT22;11773;52.570;13.052;2024-03-06T00:27:48;3.70;99.90
23207;DHT22;11773;52.570;13.052;2024-03-06T00:30:18;3.70;99.90
23207;DHT22;11773;52.570;13.052;2024-03-06T00:32:47;3.60;99.90
23207;DHT22;11773;52.570;13.052;2024-03-06T00:35:17;3.70;99.90
23207;DHT22;11773;52.570;13.052;2024-03-06T00:37:47;3.60;99.90
23207;DHT22;11773;52.570;13.052;2024-03-06T00:40:17;3.60;99.90
23207;DHT22;11773;52.570;13.052;2024-03-06T00:42:47;3.50;99.90
23207;DHT22;11773;52.570;13.052;2024-03-06T00:45:16;3.60;99.90
23207;DHT22;11773;52.570;13.052;2024-03-06T00:47:46;3.40;99.90
23207;DHT22;11773;52.570;13.052;2024-03-06T00:50:15;3.60;99.90
23207;DHT22;11773;52.570;13.052;2024-03-06T00:52:46;3.40;99.90
23207;DHT22;11773;52.570;13.052;2024-03-06T00:55:16;3.40;99.90
23207;DHT22;11773;52.570;13.052;2024-03-06T00:57:46;3.20;99.90
23207;DHT22;11773;52.570;13.052;2024-03-06T01:00:15;3.30;99.90
23207;DHT22;11773;52.570;13.052;2024-03-06T01:02:46;3.10;99.90
23207;DHT22;11773;52.570;13.052;2024-03-06T01:05:16;3.20;99.90
23207;DHT22;11773;52.570;13.052;2024-03-06T01:07:46;3.30;99.90
23207;DHT22;11773;52.570;13.052;2024-03-06T01:10:15;3.40;99.90
23207;DHT22;11773;52.570;13.052;2024-03-06T01:12:45;3.20;99.90
23207;DHT22;11773;52.570;13.052;2024-03-06T01:15:14;3.20;99.90
23207;DHT22;11773;52.570;13.052;2024-03-06T01:17:44;3.30;99.90
23207;DHT22;11773;52.570;13.052;2024-03-06T01:20:14;3.30;99.90
23207;DHT22;11773;52.570;13.052;2024-03-06T01:22:44;3.20;99.90
23207;DHT22;11773;52.570;13.052;2024-03-06T01:25:14;3.20;99.90
23207;DHT22;11773;52.570;13.052;2024-03-06T01:27:44;3.10;99.90
23207;DHT22;11773;52.570;13.052;2024-03-06T01:30:13;3.00;99.90
23207;DHT22;11773;52.570;13.052;2024-03-06T01:32:43;3.10;99.90
23207;DHT22;11773;52.570;13.052;2024-03-06T01:35:12;3.30;99.90
23207;DHT22;11773;52.570;13.052;2024-03-06T01:37:42;3.30;99.90
23207;DHT22;11773;52.570;13.052;2024-03-06T01:40:12;3.30;99.90
23207;DHT22;11773;52.570;13.052;2024-03-06T01:42:41;3.20;99.90
23207;DHT22;11773;52.570;13.052;2024-03-06T01:45:11;3.20;99.90
23207;DHT22;11773;52.570;13.052;2024-03-06T01:47:40;3.10;99.90
23207;DHT22;11773;52.570;13.052;2024-03-06T01:50:10;3.10;99.90
23207;DHT22;11773;52.570;13.052;2024-03-06T01:52:41;3.10;99.90
23207;DHT22;11773;52.570;13.052;2024-03-06T01:55:12;3.00;99.90
23207;DHT22;11773;52.570;13.052;2024-03-06T01:57:43;3.00;99.90
23207;DHT22;11773;52.570;13.052;2024-03-06T02:00:13;3.00;99.90
23207;DHT22;11773;52.570;13.052;2024-03-06T02:02:44;3.00;99.90
23207;DHT22;11773;52.570;13.052;2024-03-06T02:05:15;3.00;99.90
23207;DHT22;11773;52.570;13.052;2024-03-06T02:07:45;3.00;99.90
23207;DHT22;11773;52.570;13.052;2024-03-06T02:10:15;2.90;99.90
23207;DHT22;11773;52.570;13.052;2024-03-06T02:12:45;2.90;99.90
23207;DHT22;11773;52.570;13.052;2024-03-06T02:15:16;2.90;99.90
23207;DHT22;11773;52.570;13.052;2024-03-06T02:17:45;3.00;99.90
23207;DHT22;11773;52.570;13.052;2024-03-06T02:20:15;3.00;99.90
23207;DHT22;11773;52.570;13.052;2024-03-06T02:22:45;3.00;99.90
23207;DHT22;11773;52.570;13.052;2024-03-06T02:25:14;3.00;99.90
23207;DHT22;11773;52.570;13.052;2024-03-06T02:27:44;3.10;99.90
23207;DHT22;11773;52.570;13.052;2024-03-06T02:30:20;3.10;99.90
23207;DHT22;11773;52.570;13.052;2024-03-06T02:32:49;3.00;99.90
23207;DHT22;11773;52.570;13.052;2024-03-06T02:35:19;2.80;99.90
23207;DHT22;11773;52.570;13.052;2024-03-06T02:37:49;2.80;99.90
23207;DHT22;11773;52.570;13.052;2024-03-06T02:40:18;2.80;99.90
23207;DHT22;11773;52.570;13.052;2024-03-06T02:42:48;2.90;99.90
23207;DHT22;11773;52.570;13.052;2024-03-06T02:45:18;2.90;99.90
23207;DHT22;11773;52.570;13.052;2024-03-06T02:47:48;2.90;99.90
23207;DHT22;11773;52.570;13.052;2024-03-06T02:50:17;2.80;99.90
23207;DHT22;11773;52.570;13.052;2024-03-06T02:52:49;2.60;99.90
23207;DHT22;11773;52.570;13.052;2024-03-06T02:55:19;2.70;99.90
23207;DHT22;11773;52.570;13.052;2024-03-06T02:57:50;2.60;99.90
23207;DHT22;11773;52.570;13.052;2024-03-06T03:00:20;2.60;99.90
23207;DHT22;11773;52.570;13.052;2024-03-06T03:02:49;2.60;99.90
23207;DHT22;11773;52.570;13.052;2024-03-06T03:05:19;2.50;99.90
23207;DHT22;11773;52.570;13.052;2024-03-06T03:07:49;2.60;99.90
23207;DHT22;11773;52.570;13.052;2024-03-06T03:10:19;2.60;99.90
23207;DHT22;11773;52.570;13.052;2024-03-06T03:12:48;2.70;99.90
23207;DHT22;11773;52.570;13.052;2024-03-06T03:15:18;2.70;99.90
23207;DHT22;11773;52.570;13.052;2024-03-06T03:17:48;2.60;99.90
23207;DHT22;11773;52.570;13.052;2024-03-06T03:20:18;2.70;99.90
23207;DHT22;11773;52.570;13.052;2024-03-06T03:22:48;2.80;99.90
23207;DHT22;11773;52.570;13.052;2024-03-06T03:25:18;2.50;99.90
23207;DHT22;11773;52.570;13.052;2024-03-06T03:27:49;2.50;99.90
23207;DHT22;11773;52.570;13.052;2024-03-06T03:30:19;2.50;99.90
23207;DHT22;11773;52.570;13.052;2024-03-06T03:32:49;2.50;99.90
23207;DHT22;11773;52.570;13.052;2024-03-06T03:35:18;2.40;99.90
23207;DHT22;11773;52.570;13.052;2024-03-06T03:37:50;2.60;99.90
23207;DHT22;11773;52.570;13.052;2024-03-06T03:40:20;2.50;99.90
23207;DHT22;11773;52.570;13.052;2024-03-06T03:42:51;2.50;99.90
23207;DHT22;11773;52.570;13.052;2024-03-06T03:45:20;2.40;99.90
23207;DHT22;11773;52.570;13.052;2024-03-06T03:47:50;2.60;99.90
23207;DHT22;11773;52.570;13.052;2024-03-06T03:50:19;2.50;99.90
23207;DHT22;11773;52.570;13.052;2024-03-06T03:52:50;2.50;99.90
23207;DHT22;11773;52.570;13.052;2024-03-06T03:55:19;2.50;99.90
23207;DHT22;11773;52.570;13.052;2024-03-06T03:57:49;2.50;99.90
23207;DHT22;11773;52.570;13.052;2024-03-06T04:00:20;2.50;99.90
23207;DHT22;11773;52.570;13.052;2024-03-06T04:02:50;2.60;99.90
23207;DHT22;11773;52.570;13.052;2024-03-06T04:05:20;2.50;99.90
23207;DHT22;11773;52.570;13.052;2024-03-06T04:07:51;2.40;99.90
23207;DHT22;11773;52.570;13.052;2024-03-06T04:10:20;2.30;99.90
23207;DHT22;11773;52.570;13.052;2024-03-06T04:12:50;2.20;99.90
23207;DHT22;11773;52.570;13.052;2024-03-06T04:15:19;2.20;99.90
23207;DHT22;11773;52.570;13.052;2024-03-06T04:17:50;2.30;99.90
23207;DHT22;11773;52.570;13.052;2024-03-06T04:20:20;2.30;99.90
23207;DHT22;11773;52.570;13.052;2024-03-06T04:22:49;2.30;99.90
23207;DHT22;11773;52.570;13.052;2024-03-06T04:25:19;2.20;99.90
23207;DHT22;11773;52.570;13.052;2024-03-06T04:27:49;2.40;99.90
23207;DHT22;11773;52.570;13.052;2024-03-06T04:30:19;2.30;99.90
23207;DHT22;11773;52.570;13.052;2024-03-06T04:32:48;2.30;99.90
23207;DHT22;11773;52.570;13.052;2024-03-06T04:35:18;2.30;99.90
23207;DHT22;11773;52.570;13.052;2024-03-06T04:37:48;2.30;99.90
23207;DHT22;11773;52.570;13.052;2024-03-06T04:40:17;2.20;99.90
23207;DHT22;11773;52.570;13.052;2024-03-06T04:42:49;2.20;99.90
23207;DHT22;11773;52.570;13.052;2024-03-06T04:45:18;2.20;99.90
23207;DHT22;11773;52.570;13.052;2024-03-06T04:47:48;2.20;99.90
23207;DHT22;11773;52.570;13.052;2024-03-06T04:50:17;2.10;99.90
23207;DHT22;11773;52.570;13.052;2024-03-06T04:52:47;2.10;99.90
23207;DHT22;11773;52.570;13.052;2024-03-06T04:55:17;2.30;99.90
23207;DHT22;11773;52.570;13.052;2024-03-06T04:57:48;2.20;99.90
23207;DHT22;11773;52.570;13.052;2024-03-06T05:00:18;2.20;99.90
23207;DHT22;11773;52.570;13.052;2024-03-06T05:02:49;2.10;99.90
23207;DHT22;11773;52.570;13.052;2024-03-06T05:05:36;2.10;99.90
23207;DHT22;11773;52.570;13.052;2024-03-06T05:08:24;2.20;99.90
23207;DHT22;11773;52.570;13.052;2024-03-06T05:11:12;2.00;99.90
23207;DHT22;11773;52.570;13.052;2024-03-06T05:14:00;2.10;99.90
23207;DHT22;11773;52.570;13.052;2024-03-06T05:16:48;1.90;99.90
23207;DHT22;11773;52.570;13.052;2024-03-06T05:19:36;2.00;99.90
23207;DHT22;11773;52.570;13.052;2024-03-06T05:22:23;1.70;99.90
23207;DHT22;11773;52.570;13.052;2024-03-06T05:25:11;1.80;99.90
23207;DHT22;11773;52.570;13.052;2024-03-06T05:27:59;1.80;99.90
23207;DHT22;11773;52.570;13.052;2024-03-06T05:30:46;1.90;99.90
23207;DHT22;11773;52.570;13.052;2024-03-06T05:33:33;1.80;99.90
23207;DHT22;11773;52.570;13.052;2024-03-06T05:36:20;1.90;99.90
23207;DHT22;11773;52.570;13.052;2024-03-06T05:39:08;1.80;99.90
23207;DHT22;11773;52.570;13.052;2024-03-06T05:42:01;1.70;99.90
23207;DHT22;11773;52.570;13.052;2024-03-06T05:44:49;1.90;99.90
23207;DHT22;11773;52.570;13.052;2024-03-06T05:47:37;2.00;99.90
23207;DHT22;11773;52.570;13.052;2024-03-06T05:50:25;1.80;99.90
23207;DHT22;11773;52.570;13.052;2024-03-06T05:53:13;1.90;99.90
23207;DHT22;11773;52.570;13.052;2024-03-06T05:56:00;1.90;99.90
23207;DHT22;11773;52.570;13.052;2024-03-06T05:58:48;1.90;99.90
23207;DHT22;11773;52.570;13.052;2024-03-06T06:01:18;1.90;99.90
23207;DHT22;11773;52.570;13.052;2024-03-06T06:03:48;1.90;99.90
23207;DHT22;11773;52.570;13.052;2024-03-06T06:06:18;2.00;99.90
23207;DHT22;11773;52.570;13.052;2024-03-06T06:08:48;2.00;99.90
23207;DHT22;11773;52.570;13.052;2024-03-06T06:11:17;2.00;99.90
23207;DHT22;11773;52.570;13.052;2024-03-06T06:13:47;1.90;99.90
23207;DHT22;11773;52.570;13.052;2024-03-06T06:16:16;2.00;99.90
23207;DHT22;11773;52.570;13.052;2024-03-06T06:18:46;1.90;99.90
23207;DHT22;11773;52.570;13.052;2024-03-06T06:21:16;2.00;99.90
23207;DHT22;11773;52.570;13.052;2024-03-06T06:23:46;2.00;99.90
23207;DHT22;11773;52.570;13.052;2024-03-06T06:26:15;2.00;99.90
23207;DHT22;11773;52.570;13.052;2024-03-06T06:28:45;2.20;99.90
23207;DHT22;11773;52.570;13.052;2024-03-06T06:31:15;2.40;99.90
23207;DHT22;11773;52.570;13.052;2024-03-06T06:33:44;2.50;99.90
23207;DHT22;11773;52.570;13.052;2024-03-06T06:36:15;2.70;99.90
23207;DHT22;11773;52.570;13.052;2024-03-06T06:38:44;2.80;99.90
23207;DHT22;11773;52.570;13.052;2024-03-06T06:41:15;3.10;99.90
23207;DHT22;11773;52.570;13.052;2024-03-06T06:43:46;3.30;99.90
23207;DHT22;11773;52.570;13.052;2024-03-06T06:46:18;3.40;99.90
23207;DHT22;11773;52.570;13.052;2024-03-06T06:48:49;3.50;99.90
23207;DHT22;11773;52.570;13.052;2024-03-06T06:51:18;3.80;99.90
23207;DHT22;11773;52.570;13.052;2024-03-06T06:53:48;4.00;99.90
23207;DHT22;11773;52.570;13.052;2024-03-06T06:56:18;4.00;99.90
23207;DHT22;11773;52.570;13.052;2024-03-06T06:58:49;4.30;99.90
23207;DHT22;11773;52.570;13.052;2024-03-06T07:01:19;4.50;99.90
23207;DHT22;11773;52.570;13.052;2024-03-06T07:03:49;4.70;99.90
23207;DHT22;11773;52.570;13.052;2024-03-06T07:06:19;4.80;99.90
23207;DHT22;11773;52.570;13.052;2024-03-06T07:08:49;4.90;99.90
23207;DHT22;11773;52.570;13.052;2024-03-06T07:11:19;5.10;99.90
23207;DHT22;11773;52.570;13.052;2024-03-06T07:13:49;5.10;99.90
23207;DHT22;11773;52.570;13.052;2024-03-06T07:16:19;5.20;99.90
23207;DHT22;11773;52.570;13.052;2024-03-06T07:18:48;5.10;99.90
23207;DHT22;11773;52.570;13.052;2024-03-06T07:21:18;4.90;99.90
23207;DHT22;11773;52.570;13.052;2024-03-06T07:23:47;5.00;99.90
23207;DHT22;11773;52.570;13.052;2024-03-06T07:26:17;4.90;99.90
23207;DHT22;11773;52.570;13.052;2024-03-06T07:28:47;4.80;99.90
23207;DHT22;11773;52.570;13.052;2024-03-06T07:31:17;4.90;99.90
23207;DHT22;11773;52.570;13.052;2024-03-06T07:33:47;4.90;99.90
23207;DHT22;11773;52.570;13.052;2024-03-06T07:36:16;4.80;99.90
23207;DHT22;11773;52.570;13.052;2024-03-06T07:38:46;4.80;99.90
23207;DHT22;11773;52.570;13.052;2024-03-06T07:41:15;4.80;99.90
23207;DHT22;11773;52.570;13.052;2024-03-06T07:43:45;4.90;99.90
23207;DHT22;11773;52.570;13.052;2024-03-06T07:46:16;5.00;99.90
23207;DHT22;11773;52.570;13.052;2024-03-06T07:48:45;5.00;99.90
23207;DHT22;11773;52.570;13.052;2024-03-06T07:51:17;5.00;99.90
23207;DHT22;11773;52.570;13.052;2024-03-06T07:53:47;5.10;99.90
23207;DHT22;11773;52.570;13.052;2024-03-06T07:56:18;5.10;99.90
23207;DHT22;11773;52.570;13.052;2024-03-06T07:58:48;5.00;99.90
23207;DHT22;11773;52.570;13.052;2024-03-06T08:01:18;5.10;99.90
23207;DHT22;11773;52.570;13.052;2024-03-06T08:03:49;5.30;99.90
23207;DHT22;11773;52.570;13.052;2024-03-06T08:06:18;5.40;99.90
23207;DHT22;11773;52.570;13.052;2024-03-06T08:08:48;5.40;99.90
23207;DHT22;11773;52.570;13.052;2024-03-06T08:11:19;5.40;99.90
23207;DHT22;11773;52.570;13.052;2024-03-06T08:13:56;5.30;99.90
23207;DHT22;11773;52.570;13.052;2024-03-06T08:16:29;5.40;99.90
23207;DHT22;11773;52.570;13.052;2024-03-06T08:19:00;5.40;99.90
23207;DHT22;11773;52.570;13.052;2024-03-06T08:21:30;5.50;99.90
23207;DHT22;11773;52.570;13.052;2024-03-06T08:24:00;5.40;99.90
23207;DHT22;11773;52.570;13.052;2024-03-06T08:26:29;5.40;99.90
23207;DHT22;11773;52.570;13.052;2024-03-06T08:28:59;5.40;99.90
23207;DHT22;11773;52.570;13.052;2024-03-06T08:31:29;5.40;99.90
23207;DHT22;11773;52.570;13.052;2024-03-06T08:33:59;5.40;99.90
23207;DHT22;11773;52.570;13.052;2024-03-06T08:36:29;5.50;99.90
23207;DHT22;11773;52.570;13.052;2024-03-06T08:38:58;5.50;99.90
23207;DHT22;11773;52.570;13.052;2024-03-06T08:41:28;5.40;99.90
23207;DHT22;11773;52.570;13.052;2024-03-06T08:43:57;5.50;99.90
23207;DHT22;11773;52.570;13.052;2024-03-06T08:46:27;5.50;99.90
23207;DHT22;11773;52.570;13.052;2024-03-06T08:48:57;5.60;99.90
23207;DHT22;11773;52.570;13.052;2024-03-06T08:51:28;5.70;99.90
23207;DHT22;11773;52.570;13.052;2024-03-06T08:53:57;5.80;99.90
23207;DHT22;11773;52.570;13.052;2024-03-06T08:56:27;5.90;99.90
23207;DHT22;11773;52.570;13.052;2024-03-06T08:58:56;5.90;99.90
23207;DHT22;11773;52.570;13.052;2024-03-06T09:01:26;6.10;99.90
23207;DHT22;11773;52.570;13.052;2024-03-06T09:03:56;6.10;99.90
23207;DHT22;11773;52.570;13.052;2024-03-06T09:06:25;6.10;99.90
23207;DHT22;11773;52.570;13.052;2024-03-06T09:08:55;6.30;99.90
23207;DHT22;11773;52.570;13.052;2024-03-06T09:11:24;6.40;99.90
23207;DHT22;11773;52.570;13.052;2024-03-06T09:13:54;6.30;99.90
23207;DHT22;11773;52.570;13.052;2024-03-06T09:16:24;6.50;99.90
23207;DHT22;11773;52.570;13.052;2024-03-06T09:18:53;6.50;99.90
23207;DHT22;11773;52.570;13.052;2024-03-06T09:21:23;6.60;99.90
23207;DHT22;11773;52.570;13.052;2024-03-06T09:23:53;6.70;99.90
23207;DHT22;11773;52.570;13.052;2024-03-06T09:26:23;6.70;99.90
23207;DHT22;11773;52.570;13.052;2024-03-06T09:28:52;6.80;99.90
23207;DHT22;11773;52.570;13.052;2024-03-06T09:31:22;6.50;99.90
23207;DHT22;11773;52.570;13.052;2024-03-06T09:33:53;6.70;99.90
23207;DHT22;11773;52.570;13.052;2024-03-06T09:36:23;6.70;99.90
23207;DHT22;11773;52.570;13.052;2024-03-06T09:38:53;6.90;99.90
23207;DHT22;11773;52.570;13.052;2024-03-06T09:41:23;6.90;99.90
23207;DHT22;11773;52.570;13.052;2024-03-06T09:43:53;6.90;99.90
23207;DHT22;11773;52.570;13.052;2024-03-06T09:46:23;6.90;99.90
23207;DHT22;11773;52.570;13.052;2024-03-06T09:48:56;7.20;99.90
23207;DHT22;11773;52.570;13.052;2024-03-06T09:51:26;7.30;99.90
23207;DHT22;11773;52.570;13.052;2024-03-06T09:53:56;7.40;99.90
23207;DHT22;11773;52.570;13.052;2024-03-06T09:56:27;7.40;99.90
23207;DHT22;11773;52.570;13.052;2024-03-06T09:58:57;7.40;99.90
23207;DHT22;11773;52.570;13.052;2024-03-06T10:01:28;7.40;99.90
23207;DHT22;11773;52.570;13.052;2024-03-06T10:04:49;7.50;99.90
23207;DHT22;11773;52.570;13.052;2024-03-06T10:06:50;7.70;99.90
23207;DHT22;11773;52.570;13.052;2024-03-06T10:09:22;7.80;99.90
23207;DHT22;11773;52.570;13.052;2024-03-06T10:11:53;7.80;99.90
23207;DHT22;11773;52.570;13.052;2024-03-06T10:14:26;7.70;99.90
23207;DHT22;11773;52.570;13.052;2024-03-06T10:16:59;7.60;99.90
23207;DHT22;11773;52.570;13.052;2024-03-06T10:19:30;7.60;99.90
23207;DHT22;11773;52.570;13.052;2024-03-06T10:21:59;7.70;99.90
23207;DHT22;11773;52.570;13.052;2024-03-06T10:24:29;7.80;99.90
23207;DHT22;11773;52.570;13.052;2024-03-06T10:26:59;7.70;99.90
23207;DHT22;11773;52.570;13.052;2024-03-06T10:29:29;7.90;99.90
23207;DHT22;11773;52.570;13.052;2024-03-06T10:31:59;8.00;99.90
23207;DHT22;11773;52.570;13.052;2024-03-06T10:34:28;8.10;99.90
23207;DHT22;11773;52.570;13.052;2024-03-06T10:37:01;7.80;99.90
23207;DHT22;11773;52.570;13.052;2024-03-06T10:39:34;7.80;99.90
23207;DHT22;11773;52.570;13.052;2024-03-06T10:42:07;8.10;99.90
23207;DHT22;11773;52.570;13.052;2024-03-06T10:44:39;7.90;99.90
23207;DHT22;11773;52.570;13.052;2024-03-06T10:47:15;8.10;99.90
23207;DHT22;11773;52.570;13.052;2024-03-06T10:49:46;8.30;99.90
23207;DHT22;11773;52.570;13.052;2024-03-06T10:52:16;8.30;99.90
23207;DHT22;11773;52.570;13.052;2024-03-06T10:54:48;8.30;99.90
23207;DHT22;11773;52.570;13.052;2024-03-06T10:57:19;8.40;99.90
23207;DHT22;11773;52.570;13.052;2024-03-06T10:59:49;8.30;99.90
23207;DHT22;11773;52.570;13.052;2024-03-06T11:02:19;8.40;99.90
23207;DHT22;11773;52.570;13.052;2024-03-06T11:04:52;8.50;99.90
23207;DHT22;11773;52.570;13.052;2024-03-06T11:07:22;8.40;99.90
23207;DHT22;11773;52.570;13.052;2024-03-06T11:09:52;8.50;99.90
23207;DHT22;11773;52.570;13.052;2024-03-06T11:12:38;8.80;99.90
23207;DHT22;11773;52.570;13.052;2024-03-06T11:15:10;8.70;99.90
23207;DHT22;11773;52.570;13.052;2024-03-06T11:17:47;8.50;99.90
23207;DHT22;11773;52.570;13.052;2024-03-06T11:20:18;8.60;99.90
23207;DHT22;11773;52.570;13.052;2024-03-06T11:28:27;8.50;99.90
23207;DHT22;11773;52.570;13.052;2024-03-06T11:31:08;8.60;99.90
23207;DHT22;11773;52.570;13.052;2024-03-06T11:33:45;8.70;99.90
23207;DHT22;11773;52.570;13.052;2024-03-06T11:36:27;8.70;99.90
23207;DHT22;11773;52.570;13.052;2024-03-06T11:41:48;8.80;99.90
23207;DHT22;11773;52.570;13.052;2024-03-06T11:44:20;8.80;99.90
23207;DHT22;11773;52.570;13.052;2024-03-06T11:49:32;8.70;99.90
23207;DHT22;11773;52.570;13.052;2024-03-06T11:52:07;8.70;99.90
23207;DHT22;11773;52.570;13.052;2024-03-06T11:54:38;8.90;99.90
23207;DHT22;11773;52.570;13.052;2024-03-06T11:57:07;8.80;99.90
23207;DHT22;11773;52.570;13.052;2024-03-06T11:59:39;8.70;99.90
23207;DHT22;11773;52.570;13.052;2024-03-06T12:02:09;9.00;99.90
23207;DHT22;11773;52.570;13.052;2024-03-06T12:04:41;8.90;99.90
23207;DHT22;11773;52.570;13.052;2024-03-06T12:07:10;8.90;99.90
23207;DHT22;11773;52.570;13.052;2024-03-06T12:09:41;8.90;99.90
23207;DHT22;11773;52.570;13.052;2024-03-06T12:12:11;8.80;99.90
23207;DHT22;11773;52.570;13.052;2024-03-06T12:14:41;8.80;99.90
23207;DHT22;11773;52.570;13.052;2024-03-06T12:17:12;8.90;99.90
23207;DHT22;11773;52.570;13.052;2024-03-06T12:19:46;8.90;99.90
23207;DHT22;11773;52.570;13.052;2024-03-06T12:22:16;8.80;99.90
23207;DHT22;11773;52.570;13.052;2024-03-06T12:24:46;8.80;99.90
23207;DHT22;11773;52.570;13.052;2024-03-06T12:27:22;8.70;99.90
23207;DHT22;11773;52.570;13.052;2024-03-06T12:29:53;8.70;99.90
23207;DHT22;11773;52.570;13.052;2024-03-06T12:32:23;8.80;99.90
23207;DHT22;11773;52.570;13.052;2024-03-06T12:34:58;8.90;99.90
23207;DHT22;11773;52.570;13.052;2024-03-06T12:37:31;9.00;99.90
23207;DHT22;11773;52.570;13.052;2024-03-06T12:40:03;8.90;99.90
23207;DHT22;11773;52.570;13.052;2024-03-06T12:42:33;9.00;99.90
23207;DHT22;11773;52.570;13.052;2024-03-06T12:45:03;9.00;99.90
23207;DHT22;11773;52.570;13.052;2024-03-06T12:47:35;9.10;99.90
23207;DHT22;11773;52.570;13.052;2024-03-06T12:50:06;9.30;99.90
23207;DHT22;11773;52.570;13.052;2024-03-06T12:52:36;9.10;99.90
23207;DHT22;11773;52.570;13.052;2024-03-06T12:55:06;9.10;99.90
23207;DHT22;11773;52.570;13.052;2024-03-06T12:57:36;9.00;99.90
23207;DHT22;11773;52.570;13.052;2024-03-06T13:00:06;9.00;99.90
23207;DHT22;11773;52.570;13.052;2024-03-06T13:02:38;9.00;99.90
23207;DHT22;11773;52.570;13.052;2024-03-06T13:05:07;9.10;99.90
23207;DHT22;11773;52.570;13.052;2024-03-06T13:07:37;9.10;99.90
23207;DHT22;11773;52.570;13.052;2024-03-06T13:10:09;9.10;99.90
23207;DHT22;11773;52.570;13.052;2024-03-06T13:12:39;9.20;99.90
23207;DHT22;11773;52.570;13.052;2024-03-06T13:15:09;9.30;99.90
23207;DHT22;11773;52.570;13.052;2024-03-06T13:17:39;9.40;99.90
23207;DHT22;11773;52.570;13.052;2024-03-06T13:20:09;9.40;99.90
23207;DHT22;11773;52.570;13.052;2024-03-06T13:22:42;9.50;99.90
23207;DHT22;11773;52.570;13.052;2024-03-06T13:25:12;9.50;99.90
23207;DHT22;11773;52.570;13.052;2024-03-06T13:27:41;9.60;99.90
23207;DHT22;11773;52.570;13.052;2024-03-06T13:30:13;9.80;99.90
23207;DHT22;11773;52.570;13.052;2024-03-06T13:33:02;9.70;99.90
23207;DHT22;11773;52.570;13.052;2024-03-06T13:35:32;9.70;99.90
23207;DHT22;11773;52.570;13.052;2024-03-06T13:38:02;9.70;99.90
23207;DHT22;11773;52.570;13.052;2024-03-06T13:40:31;9.70;99.90
23207;DHT22;11773;52.570;13.052;2024-03-06T13:43:01;9.60;99.90
23207;DHT22;11773;52.570;13.052;2024-03-06T13:45:31;9.70;99.90
23207;DHT22;11773;52.570;13.052;2024-03-06T13:48:00;9.70;99.90
23207;DHT22;11773;52.570;13.052;2024-03-06T13:50:30;9.70;99.90
23207;DHT22;11773;52.570;13.052;2024-03-06T13:53:00;9.40;99.90
23207;DHT22;11773;52.570;13.052;2024-03-06T13:55:29;9.30;99.90
23207;DHT22;11773;52.570;13.052;2024-03-06T13:58:00;9.40;99.90
23207;DHT22;11773;52.570;13.052;2024-03-06T14:00:32;9.50;99.90
23207;DHT22;11773;52.570;13.052;2024-03-06T14:03:03;9.60;99.90
23207;DHT22;11773;52.570;13.052;2024-03-06T14:05:33;9.50;99.90
23207;DHT22;11773;52.570;13.052;2024-03-06T14:08:03;9.50;99.90
23207;DHT22;11773;52.570;13.052;2024-03-06T14:10:32;9.40;99.90
23207;DHT22;11773;52.570;13.052;2024-03-06T14:13:03;9.40;99.90
23207;DHT22;11773;52.570;13.052;2024-03-06T14:15:34;9.40;99.90
23207;DHT22;11773;52.570;13.052;2024-03-06T14:18:06;9.50;99.90
23207;DHT22;11773;52.570;13.052;2024-03-06T14:20:35;9.60;99.90
23207;DHT22;11773;52.570;13.052;2024-03-06T14:23:07;9.70;99.90
23207;DHT22;11773;52.570;13.052;2024-03-06T14:25:37;9.80;99.90
23207;DHT22;11773;52.570;13.052;2024-03-06T14:28:06;9.70;99.90
23207;DHT22;11773;52.570;13.052;2024-03-06T14:30:36;9.70;99.90
23207;DHT22;11773;52.570;13.052;2024-03-06T14:33:06;9.60;99.90
23207;DHT22;11773;52.570;13.052;2024-03-06T14:35:36;9.50;99.90
23207;DHT22;11773;52.570;13.052;2024-03-06T14:38:05;9.30;99.90
23207;DHT22;11773;52.570;13.052;2024-03-06T14:40:35;9.40;99.90
23207;DHT22;11773;52.570;13.052;2024-03-06T14:43:05;9.30;99.90
23207;DHT22;11773;52.570;13.052;2024-03-06T14:45:36;9.30;99.90
23207;DHT22;11773;52.570;13.052;2024-03-06T14:48:08;9.30;99.90
23207;DHT22;11773;52.570;13.052;2024-03-06T14:50:38;9.30;99.90
23207;DHT22;11773;52.570;13.052;2024-03-06T14:53:07;9.40;99.90
23207;DHT22;11773;52.570;13.052;2024-03-06T14:55:37;9.50;99.90
23207;DHT22;11773;52.570;13.052;2024-03-06T14:58:07;9.50;99.90
23207;DHT22;11773;52.570;13.052;2024-03-06T15:00:36;9.40;99.90
23207;DHT22;11773;52.570;13.052;2024-03-06T15:03:06;9.40;99.90
23207;DHT22;11773;52.570;13.052;2024-03-06T15:05:36;9.40;99.90
23207;DHT22;11773;52.570;13.052;2024-03-06T15:08:06;9.40;99.90
23207;DHT22;11773;52.570;13.052;2024-03-06T15:10:36;9.50;99.90
23207;DHT22;11773;52.570;13.052;2024-03-06T15:13:06;9.60;99.90
23207;DHT22;11773;52.570;13.052;2024-03-06T15:15:37;9.40;99.90
23207;DHT22;11773;52.570;13.052;2024-03-06T15:18:08;9.40;99.90
23207;DHT22;11773;52.570;13.052;2024-03-06T15:20:38;9.30;99.90
23207;DHT22;11773;52.570;13.052;2024-03-06T15:23:08;9.30;99.90
23207;DHT22;11773;52.570;13.052;2024-03-06T15:25:37;9.30;99.90
23207;DHT22;11773;52.570;13.052;2024-03-06T15:28:07;9.30;99.90
23207;DHT22;11773;52.570;13.052;2024-03-06T15:30:37;9.40;99.90
23207;DHT22;11773;52.570;13.052;2024-03-06T15:33:07;9.30;99.90
23207;DHT22;11773;52.570;13.052;2024-03-06T15:35:37;9.40;99.90
23207;DHT22;11773;52.570;13.052;2024-03-06T15:38:06;9.50;99.90
23207;DHT22;11773;52.570;13.052;2024-03-06T15:40:36;9.40;99.90
23207;DHT22;11773;52.570;13.052;2024-03-06T15:43:06;9.30;99.90
23207;DHT22;11773;52.570;13.052;2024-03-06T15:45:36;9.40;99.90
23207;DHT22;11773;52.570;13.052;2024-03-06T15:48:05;9.20;99.90
23207;DHT22;11773;52.570;13.052;2024-03-06T15:50:37;9.40;99.90
23207;DHT22;11773;52.570;13.052;2024-03-06T15:53:06;9.40;99.90
23207;DHT22;11773;52.570;13.052;2024-03-06T15:55:36;9.40;99.90
23207;DHT22;11773;52.570;13.052;2024-03-06T15:58:06;9.40;99.90
23207;DHT22;11773;52.570;13.052;2024-03-06T16:00:36;9.50;99.90
23207;DHT22;11773;52.570;13.052;2024-03-06T16:03:06;9.50;99.90
23207;DHT22;11773;52.570;13.052;2024-03-06T16:05:35;9.50;99.90